EWG745 UDYZ-EBBR
Flight info
| Callsign | EWG745 |
|---|---|
| Flight time | N/A |
| Altitude | 28000 |
| Route | INDUR B374 ALVAR/N0447F340 UB374 ERZ UL746 INB/N0446F360 UL746 ODERO DCT OPT DCT SOKRU DCT BEGLA DCT DEXIT DCT EXITI DCT TEKTU DCT TESGA DCT UMUPU T880 BATTY |
| Aircraft | A320/M-SDE3FGHIRWY/LB1 |
Departure
| Time | 2026-05-04 10:51 |
|---|---|
| Airport | Zvartnots International Airport (UDYZ) |
Arrival
| Time | N/A |
|---|---|
| Airport | Brussels Airport (EBBR) |
| Time | Latitude | Longitude | Altitude | Speed | Heading |
|---|---|---|---|---|---|
| 2026-05-04 10:32 | 40.15050 | 44.40242 | 2837 ft | 0 kts | 359° |
| 2026-05-04 10:36 | 40.15048 | 44.40242 | 2837 ft | 1 kts | 359° |
| 2026-05-04 10:36 | 40.15030 | 44.40243 | 2837 ft | 3 kts | 350° |
| 2026-05-04 10:36 | 40.15011 | 44.40250 | 2837 ft | 3 kts | 335° |
| 2026-05-04 10:37 | 40.14995 | 44.40263 | 2837 ft | 3 kts | 309° |
| 2026-05-04 10:37 | 40.14987 | 44.40280 | 2837 ft | 1 kts | 272° |
| 2026-05-04 10:37 | 40.14987 | 44.40284 | 2837 ft | 2 kts | 270° |
| 2026-05-04 10:40 | 40.14987 | 44.40246 | 2837 ft | 10 kts | 269° |
| 2026-05-04 10:40 | 40.14986 | 44.40164 | 2837 ft | 7 kts | 269° |
| 2026-05-04 10:41 | 40.14986 | 44.40109 | 2837 ft | 5 kts | 269° |
| 2026-05-04 10:41 | 40.14986 | 44.40078 | 2837 ft | 2 kts | 269° |
| 2026-05-04 10:41 | 40.14985 | 44.40070 | 2837 ft | 0 kts | 269° |
| 2026-05-04 10:41 | 40.14985 | 44.40014 | 2837 ft | 17 kts | 269° |
| 2026-05-04 10:42 | 40.14983 | 44.39846 | 2837 ft | 18 kts | 269° |
| 2026-05-04 10:42 | 40.14981 | 44.39690 | 2837 ft | 16 kts | 269° |
| 2026-05-04 10:42 | 40.14983 | 44.39556 | 2837 ft | 13 kts | 269° |
| 2026-05-04 10:42 | 40.14982 | 44.39447 | 2837 ft | 11 kts | 269° |
| 2026-05-04 10:43 | 40.14981 | 44.39341 | 2836 ft | 11 kts | 269° |
| 2026-05-04 10:44 | 40.14978 | 44.38700 | 2835 ft | 10 kts | 270° |
| 2026-05-04 10:45 | 40.14978 | 44.38626 | 2837 ft | 7 kts | 270° |
| 2026-05-04 10:45 | 40.14977 | 44.38574 | 2837 ft | 6 kts | 269° |
| 2026-05-04 10:45 | 40.14976 | 44.38505 | 2836 ft | 7 kts | 269° |
| 2026-05-04 10:45 | 40.14973 | 44.38439 | 2835 ft | 11 kts | 257° |
| 2026-05-04 10:46 | 40.14928 | 44.38376 | 2836 ft | 9 kts | 201° |
| 2026-05-04 10:46 | 40.14872 | 44.38370 | 2835 ft | 8 kts | 180° |
| 2026-05-04 10:46 | 40.14814 | 44.38370 | 2833 ft | 10 kts | 179° |
| 2026-05-04 10:46 | 40.14740 | 44.38345 | 2828 ft | 13 kts | 228° |
| 2026-05-04 10:47 | 40.14726 | 44.38234 | 2828 ft | 11 kts | 269° |
| 2026-05-04 10:47 | 40.14725 | 44.38146 | 2828 ft | 8 kts | 269° |
| 2026-05-04 10:47 | 40.14725 | 44.38077 | 2828 ft | 7 kts | 269° |
| 2026-05-04 10:47 | 40.14724 | 44.37979 | 2828 ft | 12 kts | 269° |
| 2026-05-04 10:49 | 40.14760 | 44.37366 | 2822 ft | 3 kts | 250° |
| 2026-05-04 10:49 | 40.14733 | 44.37356 | 2821 ft | 6 kts | 165° |
| 2026-05-04 10:50 | 40.14721 | 44.37398 | 2821 ft | 6 kts | 89° |
| 2026-05-04 10:51 | 40.14334 | 44.45653 | 4703 ft | 171 kts | 143° |
| 2026-05-04 10:52 | 40.13188 | 44.46068 | 4869 ft | 183 kts | 197° |
| 2026-05-04 10:52 | 40.12155 | 44.45092 | 5154 ft | 196 kts | 228° |
| 2026-05-04 10:52 | 40.11500 | 44.43435 | 5296 ft | 221 kts | 257° |
| 2026-05-04 10:54 | 40.11496 | 44.26229 | 8501 ft | 290 kts | 268° |
| 2026-05-04 10:54 | 40.11509 | 44.23582 | 9094 ft | 293 kts | 268° |
| 2026-05-04 10:56 | 40.11559 | 44.04135 | 12886 ft | 321 kts | 265° |
| 2026-05-04 10:56 | 40.11560 | 44.01195 | 13416 ft | 325 kts | 265° |
| 2026-05-04 10:56 | 40.11562 | 43.98227 | 13944 ft | 330 kts | 265° |
| 2026-05-04 10:57 | 40.11568 | 43.95211 | 14470 ft | 333 kts | 266° |
| 2026-05-04 10:57 | 40.11572 | 43.92176 | 14948 ft | 338 kts | 265° |
| 2026-05-04 10:57 | 40.11571 | 43.89052 | 15072 ft | 351 kts | 265° |
| 2026-05-04 10:57 | 40.11567 | 43.85802 | 15221 ft | 364 kts | 266° |
| 2026-05-04 10:58 | 40.11563 | 43.82471 | 15568 ft | 368 kts | 266° |
| 2026-05-04 10:58 | 40.11560 | 43.79097 | 16043 ft | 372 kts | 265° |
| 2026-05-04 10:58 | 40.11554 | 43.75711 | 16513 ft | 374 kts | 266° |
| 2026-05-04 10:58 | 40.11548 | 43.72317 | 16989 ft | 374 kts | 265° |
| 2026-05-04 10:59 | 40.11540 | 43.68923 | 17433 ft | 374 kts | 265° |
| 2026-05-04 10:59 | 40.11525 | 43.65517 | 17872 ft | 375 kts | 264° |
| 2026-05-04 10:59 | 40.11425 | 43.62141 | 18229 ft | 372 kts | 263° |
| 2026-05-04 10:59 | 40.11251 | 43.58761 | 18560 ft | 374 kts | 262° |
| 2026-05-04 11:00 | 40.11040 | 43.55359 | 18886 ft | 377 kts | 261° |
| 2026-05-04 11:01 | 40.09629 | 43.30828 | 21254 ft | 395 kts | 262° |
| 2026-05-04 11:02 | 40.09434 | 43.27249 | 21506 ft | 396 kts | 262° |
| 2026-05-04 11:02 | 40.09235 | 43.23638 | 21801 ft | 400 kts | 262° |
| 2026-05-04 11:05 | 40.06174 | 42.71286 | 26010 ft | 422 kts | 261° |
| 2026-05-04 11:06 | 40.05940 | 42.67470 | 26276 ft | 422 kts | 261° |
| 2026-05-04 11:06 | 40.05706 | 42.63656 | 26530 ft | 422 kts | 261° |
| 2026-05-04 11:06 | 40.05472 | 42.59831 | 26764 ft | 423 kts | 261° |
| 2026-05-04 11:06 | 40.05234 | 42.56001 | 27005 ft | 423 kts | 261° |
| 2026-05-04 11:08 | 40.03498 | 42.29278 | 28643 ft | 421 kts | 260° |
| 2026-05-04 11:10 | 40.01675 | 42.03197 | 30717 ft | 406 kts | 259° |
| 2026-05-04 11:12 | 39.99818 | 41.77547 | 31912 ft | 406 kts | 259° |
| 2026-05-04 11:12 | 39.99554 | 41.73884 | 31915 ft | 406 kts | 259° |
| 2026-05-04 11:12 | 39.99031 | 41.66551 | 31916 ft | 406 kts | 259° |
| 2026-05-04 11:13 | 39.98510 | 41.59223 | 31924 ft | 406 kts | 259° |
| 2026-05-04 11:13 | 39.97983 | 41.51900 | 31917 ft | 405 kts | 259° |
| 2026-05-04 11:14 | 39.97540 | 41.45822 | 31910 ft | 406 kts | 259° |
| 2026-05-04 11:16 | 39.97002 | 41.16425 | 31926 ft | 430 kts | 283° |
| 2026-05-04 11:16 | 39.99267 | 41.09161 | 31920 ft | 433 kts | 283° |
| 2026-05-04 11:17 | 40.01510 | 41.01857 | 31925 ft | 436 kts | 284° |
| 2026-05-04 11:19 | 40.10633 | 40.72036 | 31912 ft | 445 kts | 284° |
| 2026-05-04 11:19 | 40.12922 | 40.64512 | 31913 ft | 446 kts | 284° |
| 2026-05-04 11:20 | 40.15208 | 40.56981 | 31909 ft | 446 kts | 283° |
| 2026-05-04 11:20 | 40.17489 | 40.49434 | 31905 ft | 446 kts | 283° |
| 2026-05-04 11:22 | 40.34996 | 39.90792 | 33858 ft | 447 kts | 283° |
| 2026-05-04 11:22 | 40.37234 | 39.83207 | 33881 ft | 447 kts | 283° |
| 2026-05-04 11:23 | 40.41710 | 39.67987 | 33897 ft | 448 kts | 283° |
| 2026-05-04 11:25 | 40.57272 | 39.14074 | 33871 ft | 456 kts | 284° |
| 2026-05-04 11:25 | 40.61734 | 38.98401 | 33861 ft | 458 kts | 284° |
| 2026-05-04 11:27 | 40.81478 | 38.26841 | 33840 ft | 464 kts | 284° |
| 2026-05-04 11:28 | 40.85825 | 38.10757 | 33840 ft | 465 kts | 284° |
| 2026-05-04 11:28 | 40.90167 | 37.94638 | 33843 ft | 466 kts | 284° |
| 2026-05-04 11:29 | 40.94515 | 37.78353 | 33842 ft | 472 kts | 284° |
| 2026-05-04 11:29 | 40.98872 | 37.61934 | 33833 ft | 473 kts | 284° |
| 2026-05-04 11:33 | 41.14889 | 37.00589 | 33813 ft | 478 kts | 285° |
| 2026-05-04 11:33 | 41.17042 | 36.92238 | 33813 ft | 479 kts | 285° |
| 2026-05-04 11:34 | 41.19183 | 36.83860 | 33813 ft | 480 kts | 285° |
| 2026-05-04 11:34 | 41.21327 | 36.75466 | 33813 ft | 480 kts | 286° |
| 2026-05-04 11:35 | 41.23459 | 36.67115 | 33813 ft | 481 kts | 286° |
| 2026-05-04 11:35 | 41.25597 | 36.58675 | 33813 ft | 483 kts | 286° |
| 2026-05-04 11:36 | 41.27746 | 36.50206 | 33813 ft | 484 kts | 287° |
| 2026-05-04 11:36 | 41.29914 | 36.41722 | 33813 ft | 485 kts | 287° |
| 2026-05-04 11:37 | 41.32081 | 36.33212 | 33814 ft | 486 kts | 287° |
| 2026-05-04 11:37 | 41.34250 | 36.24670 | 33814 ft | 488 kts | 287° |
| 2026-05-04 11:38 | 41.36420 | 36.16097 | 33804 ft | 489 kts | 287° |
| 2026-05-04 11:38 | 41.38586 | 36.07499 | 33804 ft | 490 kts | 287° |
| 2026-05-04 11:39 | 41.40747 | 35.98875 | 33805 ft | 492 kts | 287° |
| 2026-05-04 11:41 | 41.48295 | 35.68511 | 33803 ft | 494 kts | 287° |
| 2026-05-04 11:41 | 41.50438 | 35.59811 | 33807 ft | 494 kts | 287° |
| 2026-05-04 11:42 | 41.52561 | 35.51167 | 33797 ft | 493 kts | 287° |
| 2026-05-04 11:42 | 41.54699 | 35.42478 | 33792 ft | 493 kts | 288° |
| 2026-05-04 11:43 | 41.56826 | 35.33783 | 33794 ft | 492 kts | 287° |
| 2026-05-04 11:43 | 41.58936 | 35.25087 | 33792 ft | 492 kts | 287° |
| 2026-05-04 11:44 | 41.61038 | 35.16383 | 33795 ft | 492 kts | 287° |
| 2026-05-04 11:44 | 41.63136 | 35.07686 | 33805 ft | 492 kts | 287° |
| 2026-05-04 11:45 | 41.65231 | 34.98977 | 33805 ft | 492 kts | 287° |
| 2026-05-04 11:45 | 41.67313 | 34.90261 | 33803 ft | 492 kts | 287° |
| 2026-05-04 11:46 | 41.69393 | 34.81531 | 33802 ft | 493 kts | 287° |
| 2026-05-04 11:46 | 41.71473 | 34.72781 | 33802 ft | 494 kts | 288° |
| 2026-05-04 11:47 | 41.73545 | 34.64014 | 33804 ft | 494 kts | 288° |
| 2026-05-04 11:47 | 41.75616 | 34.55228 | 33814 ft | 495 kts | 288° |
| 2026-05-04 11:48 | 41.77689 | 34.46420 | 33811 ft | 496 kts | 288° |
| 2026-05-04 11:48 | 41.79752 | 34.37586 | 33813 ft | 497 kts | 288° |
| 2026-05-04 11:49 | 41.81814 | 34.28732 | 33813 ft | 498 kts | 288° |
| 2026-05-04 11:49 | 41.83875 | 34.19862 | 33810 ft | 498 kts | 288° |
| 2026-05-04 11:50 | 41.85921 | 34.11040 | 33816 ft | 499 kts | 288° |
| 2026-05-04 11:50 | 41.87968 | 34.02145 | 33814 ft | 499 kts | 288° |
| 2026-05-04 11:51 | 41.90015 | 33.93229 | 33817 ft | 501 kts | 288° |
| 2026-05-04 11:51 | 41.92052 | 33.84307 | 33808 ft | 500 kts | 288° |
| 2026-05-04 11:52 | 41.94079 | 33.75370 | 33815 ft | 500 kts | 288° |
| 2026-05-04 11:52 | 41.96056 | 33.66419 | 33828 ft | 500 kts | 286° |
| 2026-05-04 11:53 | 41.97802 | 33.57393 | 33828 ft | 499 kts | 284° |
| 2026-05-04 11:53 | 41.99452 | 33.48349 | 33828 ft | 498 kts | 284° |
| 2026-05-04 11:55 | 42.06285 | 33.12338 | 33850 ft | 497 kts | 285° |
| 2026-05-04 11:56 | 42.07989 | 33.03333 | 33860 ft | 496 kts | 286° |
| 2026-05-04 11:56 | 42.09824 | 32.94388 | 33865 ft | 495 kts | 288° |
| 2026-05-04 11:57 | 42.11703 | 32.85470 | 33869 ft | 495 kts | 287° |
| 2026-05-04 11:57 | 42.13541 | 32.76535 | 33879 ft | 495 kts | 287° |
| 2026-05-04 11:58 | 42.15345 | 32.67590 | 33877 ft | 494 kts | 287° |
| 2026-05-04 11:58 | 42.17133 | 32.58648 | 33890 ft | 494 kts | 287° |
| 2026-05-04 11:59 | 42.18919 | 32.49707 | 33885 ft | 494 kts | 287° |
| 2026-05-04 11:59 | 42.20701 | 32.40766 | 33900 ft | 494 kts | 287° |
| 2026-05-04 12:00 | 42.22478 | 32.31806 | 33894 ft | 495 kts | 287° |
| 2026-05-04 12:00 | 42.24242 | 32.22840 | 33898 ft | 494 kts | 287° |
| 2026-05-04 12:01 | 42.26002 | 32.13866 | 33895 ft | 494 kts | 287° |
| 2026-05-04 12:02 | 42.32112 | 31.82432 | 33905 ft | 494 kts | 287° |
| 2026-05-04 12:03 | 42.33554 | 31.74966 | 33909 ft | 494 kts | 287° |
| 2026-05-04 12:03 | 42.35294 | 31.65986 | 33939 ft | 494 kts | 287° |
| 2026-05-04 12:04 | 42.37019 | 31.57006 | 33949 ft | 493 kts | 287° |
| 2026-05-04 12:04 | 42.38723 | 31.48039 | 33950 ft | 492 kts | 287° |
| 2026-05-04 12:05 | 42.40413 | 31.39067 | 33949 ft | 491 kts | 287° |
| 2026-05-04 12:05 | 42.42099 | 31.30114 | 33957 ft | 491 kts | 287° |
| 2026-05-04 12:06 | 42.43781 | 31.21170 | 33960 ft | 490 kts | 287° |
| 2026-05-04 12:06 | 42.45453 | 31.12233 | 33960 ft | 490 kts | 287° |
| 2026-05-04 12:07 | 42.47113 | 31.03298 | 33960 ft | 489 kts | 287° |
| 2026-05-04 12:07 | 42.48763 | 30.94366 | 33967 ft | 489 kts | 287° |
| 2026-05-04 12:08 | 42.50405 | 30.85446 | 33970 ft | 488 kts | 287° |
| 2026-05-04 12:08 | 42.52037 | 30.76528 | 33969 ft | 487 kts | 287° |
| 2026-05-04 12:09 | 42.53656 | 30.67611 | 33981 ft | 487 kts | 287° |
| 2026-05-04 12:09 | 42.55266 | 30.58759 | 33980 ft | 486 kts | 287° |
| 2026-05-04 12:10 | 42.56875 | 30.49853 | 33980 ft | 486 kts | 287° |
| 2026-05-04 12:10 | 42.58468 | 30.40942 | 33991 ft | 486 kts | 287° |
| 2026-05-04 12:11 | 42.60063 | 30.32033 | 33988 ft | 485 kts | 290° |
| 2026-05-04 12:11 | 42.62745 | 30.23765 | 33989 ft | 475 kts | 307° |
| 2026-05-04 12:12 | 42.66654 | 30.16607 | 33999 ft | 471 kts | 313° |
| 2026-05-04 12:12 | 42.70658 | 30.09559 | 33999 ft | 471 kts | 312° |
| 2026-05-04 12:14 | 42.86599 | 29.81259 | 34028 ft | 471 kts | 312° |
| 2026-05-04 12:15 | 42.90569 | 29.74159 | 34042 ft | 471 kts | 312° |
| 2026-05-04 12:15 | 42.94513 | 29.67106 | 34021 ft | 462 kts | 312° |
| 2026-05-04 12:16 | 42.98393 | 29.60142 | 34026 ft | 460 kts | 312° |
| 2026-05-04 12:16 | 43.02267 | 29.53182 | 34028 ft | 460 kts | 312° |
| 2026-05-04 12:17 | 43.06139 | 29.46215 | 34024 ft | 460 kts | 311° |
| 2026-05-04 12:17 | 43.09999 | 29.39238 | 34024 ft | 460 kts | 311° |
| 2026-05-04 12:18 | 43.13853 | 29.32244 | 34020 ft | 460 kts | 311° |
| 2026-05-04 12:18 | 43.17712 | 29.25237 | 34025 ft | 461 kts | 311° |
| 2026-05-04 12:19 | 43.21539 | 29.18272 | 34030 ft | 461 kts | 311° |
| 2026-05-04 12:19 | 43.25390 | 29.11254 | 34032 ft | 461 kts | 311° |
| 2026-05-04 12:20 | 43.29244 | 29.04224 | 34030 ft | 461 kts | 311° |
| 2026-05-04 12:20 | 43.33091 | 28.97176 | 34032 ft | 461 kts | 311° |
| 2026-05-04 12:21 | 43.36925 | 28.90117 | 34025 ft | 461 kts | 310° |
| 2026-05-04 12:21 | 43.40762 | 28.83043 | 34030 ft | 461 kts | 310° |
| 2026-05-04 12:22 | 43.44597 | 28.75963 | 34035 ft | 461 kts | 310° |
| 2026-05-04 12:22 | 43.48436 | 28.68879 | 34040 ft | 461 kts | 310° |
| 2026-05-04 12:23 | 43.52270 | 28.61783 | 34030 ft | 462 kts | 310° |
| 2026-05-04 12:23 | 43.56094 | 28.54667 | 34047 ft | 462 kts | 310° |
| 2026-05-04 12:24 | 43.59917 | 28.47536 | 34032 ft | 462 kts | 310° |
| 2026-05-04 12:24 | 43.63740 | 28.40395 | 34029 ft | 463 kts | 309° |
| 2026-05-04 12:25 | 43.67558 | 28.33234 | 34039 ft | 463 kts | 309° |
| 2026-05-04 12:25 | 43.71374 | 28.26059 | 34041 ft | 463 kts | 309° |
| 2026-05-04 12:26 | 43.75189 | 28.18884 | 34030 ft | 463 kts | 309° |
| 2026-05-04 12:26 | 43.79003 | 28.11691 | 34034 ft | 463 kts | 309° |
| 2026-05-04 12:27 | 43.82780 | 28.04541 | 34036 ft | 463 kts | 309° |
| 2026-05-04 12:27 | 43.86587 | 27.97330 | 34040 ft | 464 kts | 309° |
| 2026-05-04 12:28 | 43.90387 | 27.90111 | 34042 ft | 464 kts | 309° |
| 2026-05-04 12:28 | 43.94181 | 27.82878 | 34049 ft | 463 kts | 309° |
| 2026-05-04 12:29 | 43.97969 | 27.75635 | 34048 ft | 464 kts | 309° |
| 2026-05-04 12:29 | 44.01760 | 27.68389 | 34045 ft | 464 kts | 308° |
| 2026-05-04 12:30 | 44.05543 | 27.61144 | 34037 ft | 463 kts | 308° |
| 2026-05-04 12:30 | 44.09310 | 27.53880 | 34051 ft | 463 kts | 308° |
| 2026-05-04 12:31 | 44.13070 | 27.46608 | 34043 ft | 462 kts | 308° |
| 2026-05-04 12:31 | 44.16830 | 27.39345 | 34054 ft | 463 kts | 308° |
| 2026-05-04 12:32 | 44.22458 | 27.28442 | 34054 ft | 462 kts | 307° |
| 2026-05-04 12:33 | 44.26189 | 27.21165 | 34054 ft | 461 kts | 307° |
| 2026-05-04 12:33 | 44.29921 | 27.13888 | 34054 ft | 461 kts | 307° |
| 2026-05-04 12:34 | 44.33644 | 27.06611 | 34053 ft | 461 kts | 307° |
| 2026-05-04 12:34 | 44.37335 | 26.99368 | 34054 ft | 460 kts | 307° |
| 2026-05-04 12:35 | 44.41042 | 26.92077 | 34062 ft | 460 kts | 307° |
| 2026-05-04 12:35 | 44.44747 | 26.84781 | 34063 ft | 460 kts | 307° |
| 2026-05-04 12:36 | 44.48446 | 26.77474 | 34066 ft | 460 kts | 306° |
| 2026-05-04 12:36 | 44.52137 | 26.70164 | 34054 ft | 460 kts | 306° |
| 2026-05-04 12:37 | 44.55816 | 26.62834 | 34055 ft | 460 kts | 306° |
| 2026-05-04 12:37 | 44.59394 | 26.55393 | 34052 ft | 461 kts | 299° |
| 2026-05-04 12:38 | 44.62149 | 26.47278 | 34054 ft | 460 kts | 295° |
| 2026-05-04 12:38 | 44.64855 | 26.39132 | 34055 ft | 460 kts | 295° |
| 2026-05-04 12:39 | 44.67552 | 26.30975 | 34056 ft | 460 kts | 295° |
| 2026-05-04 12:39 | 44.70243 | 26.22811 | 34056 ft | 460 kts | 295° |
| 2026-05-04 12:40 | 44.72927 | 26.14640 | 34055 ft | 460 kts | 295° |
| 2026-05-04 12:40 | 44.75603 | 26.06480 | 34054 ft | 459 kts | 295° |
| 2026-05-04 12:41 | 44.78273 | 25.98312 | 34062 ft | 459 kts | 295° |
| 2026-05-04 12:41 | 44.80927 | 25.90147 | 34063 ft | 457 kts | 295° |
| 2026-05-04 12:42 | 44.83569 | 25.82008 | 34064 ft | 457 kts | 295° |
| 2026-05-04 12:42 | 44.86200 | 25.73872 | 34063 ft | 456 kts | 294° |
| 2026-05-04 12:43 | 44.88824 | 25.65733 | 34064 ft | 455 kts | 294° |
| 2026-05-04 12:43 | 44.91441 | 25.57608 | 34060 ft | 455 kts | 294° |
| 2026-05-04 12:44 | 44.94046 | 25.49477 | 34064 ft | 454 kts | 294° |
| 2026-05-04 12:44 | 44.96642 | 25.41352 | 34074 ft | 454 kts | 294° |
| 2026-05-04 12:45 | 44.99242 | 25.33236 | 34073 ft | 453 kts | 297° |
| 2026-05-04 12:45 | 45.02319 | 25.25467 | 34083 ft | 453 kts | 300° |
| 2026-05-04 12:46 | 45.05416 | 25.17715 | 34081 ft | 452 kts | 299° |
| 2026-05-04 12:46 | 45.08505 | 25.09967 | 34084 ft | 452 kts | 299° |
| 2026-05-04 12:47 | 45.11584 | 25.02201 | 34086 ft | 452 kts | 299° |
| 2026-05-04 12:47 | 45.14657 | 24.94432 | 34086 ft | 452 kts | 299° |
| 2026-05-04 12:48 | 45.17728 | 24.86669 | 34088 ft | 451 kts | 299° |
| 2026-05-04 12:48 | 45.20789 | 24.78902 | 34087 ft | 451 kts | 299° |
| 2026-05-04 12:49 | 45.23845 | 24.71123 | 34090 ft | 451 kts | 299° |